createdAt,value
2017-06-16T00:00:34.618Z,0
2017-06-16T00:01:34.302Z,0
2017-06-16T00:02:34.303Z,0
2017-06-16T00:03:34.302Z,0
2017-06-16T00:04:34.298Z,0
2017-06-16T00:05:34.296Z,0
2017-06-16T00:06:34.304Z,0
2017-06-16T00:07:34.332Z,0
2017-06-16T00:08:34.297Z,0
2017-06-16T00:09:34.334Z,0
2017-06-16T00:10:34.292Z,0
2017-06-16T00:11:34.300Z,0
2017-06-16T00:12:34.601Z,0
2017-06-16T00:13:34.298Z,0
2017-06-16T00:14:34.604Z,0
2017-06-16T00:15:34.299Z,0
2017-06-16T00:16:33.996Z,0
2017-06-16T00:17:34.293Z,0
2017-06-16T00:18:34.295Z,0
2017-06-16T00:19:33.986Z,0
2017-06-16T00:20:34.298Z,0
2017-06-16T00:21:34.294Z,0
2017-06-16T00:22:34.597Z,0
2017-06-16T00:23:34.283Z,0
2017-06-16T00:24:34.284Z,0
2017-06-16T00:25:34.283Z,0
2017-06-16T00:26:34.285Z,0
2017-06-16T00:27:34.288Z,0
2017-06-16T00:28:34.290Z,0
2017-06-16T00:29:34.288Z,0
2017-06-16T00:30:34.279Z,0
2017-06-16T00:31:34.279Z,0
2017-06-16T00:32:34.289Z,0
2017-06-16T00:33:34.282Z,0
2017-06-16T00:34:34.279Z,0
2017-06-16T00:35:34.289Z,0
2017-06-16T00:36:34.582Z,0
2017-06-16T00:37:34.279Z,0
2017-06-16T00:38:34.279Z,0
2017-06-16T00:39:34.280Z,0
2017-06-16T00:40:34.273Z,0
2017-06-16T00:41:34.279Z,0
2017-06-16T00:42:34.275Z,0
2017-06-16T00:43:34.276Z,0
2017-06-16T00:44:34.276Z,0
2017-06-16T00:45:34.280Z,0
2017-06-16T00:46:34.272Z,0
2017-06-16T00:47:33.967Z,0
2017-06-16T00:48:34.272Z,0
2017-06-16T00:49:34.271Z,0
2017-06-16T00:50:34.270Z,0
2017-06-16T00:51:34.270Z,0
2017-06-16T00:52:34.265Z,0
2017-06-16T00:53:34.266Z,0
2017-06-16T00:54:34.575Z,0
2017-06-16T00:55:34.264Z,0
2017-06-16T00:56:34.270Z,0
2017-06-16T00:57:34.269Z,0
2017-06-16T00:58:34.269Z,0
2017-06-16T00:59:34.267Z,0
2017-06-16T01:00:34.264Z,0
2017-06-16T01:01:34.272Z,0
2017-06-16T01:02:34.261Z,0
2017-06-16T01:03:34.266Z,0
2017-06-16T01:04:34.570Z,0
2017-06-16T01:05:34.265Z,0
2017-06-16T01:06:34.257Z,0
2017-06-16T01:07:34.285Z,0
2017-06-16T01:08:34.564Z,0
2017-06-16T01:09:34.564Z,0
2017-06-16T01:10:34.562Z,0
2017-06-16T01:11:34.563Z,0
2017-06-16T01:12:34.558Z,0
2017-06-16T01:13:34.561Z,0
2017-06-16T01:14:34.558Z,0
2017-06-16T01:15:33.944Z,0
2017-06-16T01:16:34.566Z,0
2017-06-16T01:17:34.249Z,0
2017-06-16T01:18:34.260Z,0
2017-06-16T01:19:34.552Z,0
2017-06-16T01:20:34.555Z,0
2017-06-16T01:21:34.558Z,0
2017-06-16T01:22:34.250Z,0
2017-06-16T01:23:34.247Z,0
2017-06-16T01:24:34.253Z,0
2017-06-16T01:25:34.247Z,0
2017-06-16T01:26:34.247Z,0
2017-06-16T01:27:34.546Z,0
2017-06-16T01:28:34.548Z,0
2017-06-16T01:29:34.551Z,0
2017-06-16T01:30:34.544Z,0
2017-06-16T01:31:33.939Z,0
2017-06-16T01:32:34.541Z,0
2017-06-16T01:33:33.937Z,0
2017-06-16T01:34:34.242Z,0
2017-06-16T01:35:34.280Z,0
2017-06-16T01:36:34.236Z,0
2017-06-16T01:37:34.245Z,0
2017-06-16T01:38:33.928Z,0
2017-06-16T01:39:34.569Z,0
2017-06-16T01:40:34.232Z,0
2017-06-16T01:41:34.539Z,0
2017-06-16T01:42:34.539Z,0
2017-06-16T01:43:34.236Z,0
2017-06-16T01:44:34.229Z,0
2017-06-16T01:45:33.926Z,0
2017-06-16T01:46:34.234Z,0
2017-06-16T01:47:34.538Z,0
2017-06-16T01:48:34.228Z,0
2017-06-16T01:49:33.922Z,0
2017-06-16T01:50:34.223Z,0
2017-06-16T01:51:34.232Z,0
2017-06-16T01:52:34.223Z,0
2017-06-16T01:53:34.223Z,0
2017-06-16T01:54:33.917Z,0
2017-06-16T01:55:34.434Z,0
2017-06-16T01:56:34.224Z,0
2017-06-16T01:57:34.528Z,0
2017-06-16T01:58:34.527Z,0
2017-06-16T01:59:34.526Z,0
2017-06-16T02:00:34.524Z,0
2017-06-16T02:01:34.215Z,0
2017-06-16T02:02:34.522Z,0
2017-06-16T02:03:34.524Z,0
2017-06-16T02:04:34.527Z,0
2017-06-16T02:05:34.251Z,0
2017-06-16T02:06:34.517Z,0
2017-06-16T02:07:34.537Z,0
2017-06-16T02:08:34.212Z,0
2017-06-16T02:09:34.518Z,0
2017-06-16T02:10:34.220Z,0
2017-06-16T02:11:34.214Z,0
2017-06-16T02:12:34.207Z,0
2017-06-16T02:13:34.511Z,0
2017-06-16T02:14:34.209Z,0
2017-06-16T02:15:34.515Z,0
2017-06-16T02:16:34.205Z,0
2017-06-16T02:17:34.202Z,0
2017-06-16T02:18:34.200Z,0
2017-06-16T02:19:33.895Z,0
2017-06-16T02:20:34.508Z,0
2017-06-16T02:21:34.204Z,0
2017-06-16T02:22:34.504Z,0
2017-06-16T02:23:34.507Z,0
2017-06-16T02:24:34.196Z,0
2017-06-16T02:25:34.201Z,0
2017-06-16T02:26:34.506Z,0
2017-06-16T02:27:34.505Z,0
2017-06-16T02:28:34.499Z,0
2017-06-16T02:29:34.503Z,0
2017-06-16T02:30:34.512Z,0
2017-06-16T02:31:34.501Z,0
2017-06-16T02:32:34.497Z,0
2017-06-16T02:33:34.500Z,0
2017-06-16T02:34:34.188Z,0
2017-06-16T02:35:34.194Z,0
2017-06-16T02:36:34.186Z,0
2017-06-16T02:37:34.194Z,0
2017-06-16T02:38:34.492Z,0
2017-06-16T02:39:34.490Z,0
2017-06-16T02:40:34.494Z,0
2017-06-16T02:41:34.191Z,0
2017-06-16T02:42:33.877Z,0
2017-06-16T02:43:34.185Z,0
2017-06-16T02:44:33.879Z,0
2017-06-16T02:45:34.485Z,0
2017-06-16T02:46:34.482Z,0
2017-06-16T02:47:34.486Z,0
2017-06-16T02:48:34.182Z,0
2017-06-16T02:49:34.481Z,0
2017-06-16T02:50:34.179Z,0
2017-06-16T02:51:33.872Z,0
2017-06-16T02:52:34.175Z,0
2017-06-16T02:53:34.480Z,0
2017-06-16T02:54:34.215Z,0
2017-06-16T02:55:34.174Z,0
2017-06-16T02:56:33.868Z,0
2017-06-16T02:57:34.166Z,0
2017-06-16T02:58:34.487Z,0
2017-06-16T02:59:34.472Z,0
2017-06-16T03:00:34.475Z,0
2017-06-16T03:01:34.471Z,0
2017-06-16T03:02:34.473Z,0
2017-06-16T03:03:33.867Z,0
2017-06-16T03:04:34.164Z,0
2017-06-16T03:05:34.470Z,0
2017-06-16T03:06:33.857Z,0
2017-06-16T03:07:34.186Z,0
2017-06-16T03:08:34.469Z,0
2017-06-16T03:09:34.469Z,0
2017-06-16T03:10:34.466Z,0
2017-06-16T03:11:34.469Z,0
2017-06-16T03:12:34.470Z,0
2017-06-16T03:13:33.853Z,0
2017-06-16T03:14:34.462Z,0
2017-06-16T03:15:34.161Z,0
2017-06-16T03:16:33.850Z,0
2017-06-16T03:17:34.460Z,0
2017-06-16T03:18:34.462Z,0
2017-06-16T03:19:34.457Z,0
2017-06-16T03:20:34.155Z,0
2017-06-16T03:21:34.456Z,0
2017-06-16T03:22:34.461Z,0
2017-06-16T03:23:34.456Z,0
2017-06-16T03:24:34.457Z,0
2017-06-16T03:25:34.458Z,0
2017-06-16T03:26:34.142Z,0
2017-06-16T03:27:34.147Z,0
2017-06-16T03:28:34.448Z,0
2017-06-16T03:29:34.145Z,0
2017-06-16T03:30:34.138Z,0
2017-06-16T03:31:34.446Z,0
2017-06-16T03:32:34.138Z,0
2017-06-16T03:33:34.450Z,0
2017-06-16T03:34:34.442Z,0
2017-06-16T03:35:34.167Z,0
2017-06-16T03:36:34.140Z,0
2017-06-16T03:37:33.831Z,0
2017-06-16T03:38:34.442Z,0
2017-06-16T03:39:34.440Z,5
2017-06-16T03:40:34.441Z,5
2017-06-16T03:41:34.438Z,5
2017-06-16T03:42:34.440Z,5
2017-06-16T03:43:34.134Z,5
2017-06-16T03:44:34.435Z,5
2017-06-16T03:45:34.436Z,5
2017-06-16T03:46:34.450Z,5
2017-06-16T03:47:34.430Z,10
2017-06-16T03:48:34.127Z,10
2017-06-16T03:49:34.434Z,10
2017-06-16T03:50:34.433Z,10
2017-06-16T03:51:34.121Z,10
2017-06-16T03:52:34.122Z,10
2017-06-16T03:53:34.119Z,15
2017-06-16T03:54:33.554Z,15
2017-06-16T03:55:34.435Z,15
2017-06-16T03:56:34.128Z,15
2017-06-16T03:57:34.427Z,15
2017-06-16T03:58:33.813Z,10
2017-06-16T03:59:34.115Z,10
2017-06-16T04:00:34.426Z,10
2017-06-16T04:01:33.809Z,10
2017-06-16T04:02:33.504Z,10
2017-06-16T04:03:34.113Z,10
2017-06-16T04:04:34.117Z,10
2017-06-16T04:05:34.422Z,15
2017-06-16T04:06:34.419Z,15
2017-06-16T04:07:34.446Z,15
2017-06-16T04:08:33.807Z,15
2017-06-16T04:09:34.411Z,20
2017-06-16T04:10:33.802Z,20
2017-06-16T04:11:34.111Z,20
2017-06-16T04:12:34.103Z,25
2017-06-16T04:13:34.411Z,25
2017-06-16T04:14:34.416Z,25
2017-06-16T04:15:34.101Z,25
2017-06-16T04:16:33.797Z,25
2017-06-16T04:17:34.101Z,25
2017-06-16T04:18:34.099Z,30
2017-06-16T04:19:34.408Z,30
2017-06-16T04:20:33.794Z,30
2017-06-16T04:21:34.409Z,30
2017-06-16T04:22:34.102Z,30
2017-06-16T04:23:34.098Z,30
2017-06-16T04:24:34.108Z,35
2017-06-16T04:25:33.486Z,35
2017-06-16T04:26:34.102Z,35
2017-06-16T04:27:33.792Z,35
2017-06-16T04:28:34.405Z,30
2017-06-16T04:29:34.096Z,30
2017-06-16T04:30:34.093Z,30
2017-06-16T04:31:34.398Z,30
2017-06-16T04:32:34.599Z,30
2017-06-16T04:33:34.396Z,30
2017-06-16T04:34:33.486Z,35
2017-06-16T04:35:34.091Z,30
2017-06-16T04:36:34.395Z,20
2017-06-16T04:37:34.088Z,15
2017-06-16T04:38:34.396Z,15
2017-06-16T04:39:34.392Z,15
2017-06-16T04:40:34.390Z,10
2017-06-16T04:41:34.393Z,5
2017-06-16T04:42:34.388Z,10
2017-06-16T04:43:34.386Z,15
2017-06-16T04:44:34.077Z,10
2017-06-16T04:45:34.076Z,10
2017-06-16T04:46:34.387Z,15
2017-06-16T04:47:34.083Z,20
2017-06-16T04:48:34.077Z,10
2017-06-16T04:49:33.777Z,5
2017-06-16T04:50:34.086Z,10
2017-06-16T04:51:34.382Z,15
2017-06-16T04:52:33.772Z,30
2017-06-16T04:53:34.381Z,30
2017-06-16T04:54:33.772Z,35
2017-06-16T04:55:34.075Z,35
2017-06-16T04:56:33.464Z,30
2017-06-16T04:57:34.378Z,35
2017-06-16T04:58:34.072Z,30
2017-06-16T04:59:34.381Z,30
2017-06-16T05:00:34.379Z,20
2017-06-16T05:01:33.763Z,10
2017-06-16T05:02:34.371Z,10
2017-06-16T05:03:34.379Z,10
2017-06-16T05:04:33.762Z,10
2017-06-16T05:05:34.066Z,15
2017-06-16T05:06:34.068Z,10
2017-06-16T05:07:33.779Z,15
2017-06-16T05:08:34.066Z,15
2017-06-16T05:09:34.076Z,20
2017-06-16T05:10:34.367Z,30
2017-06-16T05:11:34.368Z,35
2017-06-16T05:12:34.059Z,30
2017-06-16T05:13:34.068Z,30
2017-06-16T05:14:34.410Z,30
2017-06-16T05:15:34.368Z,30
2017-06-16T05:16:34.365Z,35
2017-06-16T05:17:33.754Z,30
2017-06-16T05:18:33.755Z,30
2017-06-16T05:19:34.058Z,25
2017-06-16T05:20:34.054Z,20
2017-06-16T05:21:33.750Z,20
2017-06-16T05:22:34.057Z,25
2017-06-16T05:23:34.050Z,20
2017-06-16T05:24:34.054Z,15
2017-06-16T05:25:34.359Z,15
2017-06-16T05:26:34.358Z,15
2017-06-16T05:27:34.053Z,20
2017-06-16T05:28:34.358Z,20
2017-06-16T05:29:34.049Z,20
2017-06-16T05:30:34.353Z,20
2017-06-16T05:31:34.048Z,15
2017-06-16T05:32:34.355Z,15
2017-06-16T05:33:34.354Z,15
2017-06-16T05:34:34.049Z,15
2017-06-16T05:35:34.357Z,25
2017-06-16T05:36:34.049Z,25
2017-06-16T05:37:33.739Z,20
2017-06-16T05:38:34.044Z,20
2017-06-16T05:39:34.346Z,20
2017-06-16T05:40:34.052Z,20
2017-06-16T05:41:34.346Z,20
2017-06-16T05:42:34.386Z,15
2017-06-16T05:43:34.354Z,20
2017-06-16T05:44:34.038Z,25
2017-06-16T05:45:34.035Z,20
2017-06-16T05:46:34.035Z,20
2017-06-16T05:47:34.347Z,25
2017-06-16T05:48:34.039Z,35
2017-06-16T05:49:34.032Z,30
2017-06-16T05:50:34.382Z,20
2017-06-16T05:51:34.344Z,20
2017-06-16T05:52:34.033Z,20
2017-06-16T05:53:34.035Z,35
2017-06-16T05:54:34.335Z,35
2017-06-16T05:55:34.070Z,35
2017-06-16T05:56:33.718Z,30
2017-06-16T05:57:34.339Z,25
2017-06-16T05:58:34.032Z,15
2017-06-16T05:59:33.420Z,15
2017-06-16T06:00:33.723Z,15
2017-06-16T06:01:33.719Z,10
2017-06-16T06:02:34.342Z,10
2017-06-16T06:03:34.022Z,15
2017-06-16T06:04:33.409Z,15
2017-06-16T06:05:34.331Z,10
2017-06-16T06:06:34.328Z,5
2017-06-16T06:07:34.043Z,5
2017-06-16T06:08:34.330Z,5
2017-06-16T06:09:34.021Z,10
2017-06-16T06:10:33.714Z,10
2017-06-16T06:11:34.019Z,10
2017-06-16T06:12:34.015Z,10
2017-06-16T06:13:33.711Z,10
2017-06-16T06:14:33.405Z,10
2017-06-16T06:15:34.018Z,10
2017-06-16T06:16:34.324Z,10
2017-06-16T06:17:34.331Z,10
2017-06-16T06:18:34.319Z,10
2017-06-16T06:19:34.318Z,10
2017-06-16T06:20:34.008Z,10
2017-06-16T06:21:34.015Z,10
2017-06-16T06:22:34.314Z,10
2017-06-16T06:23:33.705Z,10
2017-06-16T06:24:33.698Z,10
2017-06-16T06:25:34.007Z,15
2017-06-16T06:26:34.310Z,20
2017-06-16T06:27:33.699Z,25
2017-06-16T06:28:34.004Z,25
2017-06-16T06:29:33.697Z,20
2017-06-16T06:30:34.318Z,20
2017-06-16T06:31:34.004Z,25
2017-06-16T06:32:34.013Z,30
2017-06-16T06:33:34.311Z,35
2017-06-16T06:34:33.996Z,35
2017-06-16T06:35:34.301Z,35
2017-06-16T06:36:33.994Z,30
2017-06-16T06:37:34.000Z,35
2017-06-16T06:38:34.299Z,45
2017-06-16T06:39:34.302Z,45
2017-06-16T06:40:34.302Z,55
2017-06-16T06:41:33.688Z,55
2017-06-16T06:42:33.995Z,50
2017-06-16T06:43:33.998Z,60
2017-06-16T06:44:33.991Z,65
2017-06-16T06:45:33.989Z,60
2017-06-16T06:46:33.988Z,65
2017-06-16T06:47:33.992Z,60
2017-06-16T06:48:33.688Z,55
2017-06-16T06:49:33.993Z,75
2017-06-16T06:50:34.296Z,95
2017-06-16T06:51:34.295Z,100
2017-06-16T06:52:33.681Z,125
2017-06-16T06:53:34.035Z,155
2017-06-16T06:54:34.293Z,185
2017-06-16T06:55:33.720Z,245
2017-06-16T06:56:34.288Z,540
2017-06-16T06:57:33.983Z,395
2017-06-16T06:58:34.287Z,390
2017-06-16T06:59:34.290Z,490
2017-06-16T07:00:33.982Z,295
2017-06-16T07:01:33.984Z,300
2017-06-16T07:02:34.017Z,210
2017-06-16T07:03:33.983Z,260
2017-06-16T07:04:34.290Z,230
2017-06-16T07:05:33.986Z,340
2017-06-16T07:06:33.677Z,495
2017-06-16T07:07:33.996Z,180
2017-06-16T07:08:33.982Z,200
2017-06-16T07:09:34.288Z,305
2017-06-16T07:10:33.678Z,540
2017-06-16T07:11:33.982Z,635
2017-06-16T07:12:33.983Z,300
2017-06-16T07:13:34.289Z,200
2017-06-16T07:14:33.675Z,195
2017-06-16T07:15:34.291Z,430
2017-06-16T07:16:33.990Z,245
2017-06-16T07:17:34.290Z,310
2017-06-16T07:18:33.988Z,225
2017-06-16T07:19:33.682Z,285
2017-06-16T07:20:34.296Z,185
2017-06-16T07:21:34.303Z,125
2017-06-16T07:22:33.990Z,120
2017-06-16T07:23:34.299Z,95
2017-06-16T07:24:34.296Z,85
2017-06-16T07:25:33.994Z,100
2017-06-16T07:26:33.691Z,95
2017-06-16T07:27:33.995Z,130
2017-06-16T07:28:34.300Z,210
2017-06-16T07:29:34.004Z,165
2017-06-16T07:30:33.997Z,165
2017-06-16T07:31:34.300Z,255
2017-06-16T07:32:34.307Z,140
2017-06-16T07:33:34.045Z,130
2017-06-16T07:34:34.301Z,155
2017-06-16T07:35:33.692Z,250
2017-06-16T07:36:34.309Z,245
2017-06-16T07:37:34.005Z,265
2017-06-16T07:38:34.310Z,165
2017-06-16T07:39:34.007Z,185
2017-06-16T07:40:34.007Z,205
2017-06-16T07:41:34.012Z,115
2017-06-16T07:42:33.698Z,105
2017-06-16T07:43:33.708Z,150
2017-06-16T07:44:34.319Z,140
2017-06-16T07:45:33.699Z,130
2017-06-16T07:46:34.015Z,130
2017-06-16T07:47:33.708Z,110
2017-06-16T07:48:33.713Z,80
2017-06-16T07:49:34.018Z,65
2017-06-16T07:50:34.322Z,80
2017-06-16T07:51:34.322Z,85
2017-06-16T07:52:34.327Z,90
2017-06-16T07:53:34.323Z,105
2017-06-16T07:54:34.015Z,105
2017-06-16T07:55:34.019Z,110
2017-06-16T07:56:34.020Z,105
2017-06-16T07:57:34.327Z,100
2017-06-16T07:58:34.023Z,85
2017-06-16T07:59:34.023Z,120
2017-06-16T08:00:34.331Z,135
2017-06-16T08:01:34.332Z,120
2017-06-16T08:02:34.329Z,125
2017-06-16T08:03:34.022Z,130
2017-06-16T08:04:33.716Z,170
2017-06-16T08:05:34.030Z,170
2017-06-16T08:06:34.333Z,180
2017-06-16T08:07:34.043Z,190
2017-06-16T08:08:33.728Z,185
2017-06-16T08:09:33.729Z,175
2017-06-16T08:10:34.333Z,150
2017-06-16T08:11:34.337Z,125
2017-06-16T08:12:34.349Z,130
2017-06-16T08:13:33.726Z,135
2017-06-16T08:14:34.337Z,130
2017-06-16T08:15:34.031Z,105
2017-06-16T08:16:34.335Z,100
2017-06-16T08:17:34.341Z,140
2017-06-16T08:18:34.040Z,120
2017-06-16T08:19:34.046Z,120
2017-06-16T08:20:34.035Z,115
2017-06-16T08:21:34.347Z,105
2017-06-16T08:22:34.041Z,115
2017-06-16T08:23:34.045Z,140
2017-06-16T08:24:34.344Z,145
2017-06-16T08:25:34.040Z,150
2017-06-16T08:26:34.039Z,145
2017-06-16T08:27:34.350Z,125
2017-06-16T08:28:34.047Z,125
2017-06-16T08:29:33.431Z,125
2017-06-16T08:30:34.048Z,125
2017-06-16T08:31:34.356Z,170
2017-06-16T08:32:33.740Z,185
2017-06-16T08:33:34.357Z,170
2017-06-16T08:34:34.353Z,175
2017-06-16T08:35:34.048Z,165
2017-06-16T08:36:34.055Z,120
2017-06-16T08:37:34.354Z,95
2017-06-16T08:38:34.046Z,100
2017-06-16T08:39:33.748Z,150
2017-06-16T08:40:33.747Z,120
2017-06-16T08:41:34.351Z,105
2017-06-16T08:42:33.440Z,130
2017-06-16T08:43:34.362Z,150
2017-06-16T08:44:34.360Z,145
2017-06-16T08:45:34.361Z,145
2017-06-16T08:46:34.363Z,140
2017-06-16T08:47:34.054Z,100
2017-06-16T08:48:33.757Z,105
2017-06-16T08:49:34.057Z,100
2017-06-16T08:50:34.370Z,105
2017-06-16T08:51:34.365Z,100
2017-06-16T08:52:34.370Z,95
2017-06-16T08:53:34.058Z,100
2017-06-16T08:54:34.096Z,105
2017-06-16T08:55:34.367Z,115
2017-06-16T08:56:34.064Z,125
2017-06-16T08:57:34.066Z,135
2017-06-16T08:58:34.371Z,140
2017-06-16T08:59:34.062Z,145
2017-06-16T09:00:33.760Z,145
2017-06-16T09:01:33.773Z,145
2017-06-16T09:02:34.069Z,135
2017-06-16T09:03:34.381Z,130
2017-06-16T09:04:34.071Z,120
2017-06-16T09:05:34.067Z,120
2017-06-16T09:06:34.069Z,115
2017-06-16T09:07:33.791Z,140
2017-06-16T09:08:33.768Z,150
2017-06-16T09:09:34.070Z,160
2017-06-16T09:10:33.460Z,140
2017-06-16T09:11:34.384Z,120
2017-06-16T09:12:34.381Z,110
2017-06-16T09:13:34.378Z,120
2017-06-16T09:14:34.384Z,120
2017-06-16T09:15:33.771Z,125
2017-06-16T09:16:34.083Z,140
2017-06-16T09:17:33.777Z,135
2017-06-16T09:18:34.083Z,130
2017-06-16T09:19:33.774Z,130
2017-06-16T09:20:34.092Z,135
2017-06-16T09:21:34.087Z,135
2017-06-16T09:22:34.085Z,120
2017-06-16T09:23:34.387Z,115
2017-06-16T09:24:34.387Z,115
2017-06-16T09:25:34.084Z,120
2017-06-16T09:26:34.081Z,145
2017-06-16T09:27:34.085Z,150
2017-06-16T09:28:34.388Z,150
2017-06-16T09:29:34.392Z,140
2017-06-16T09:30:34.390Z,125
2017-06-16T09:31:34.396Z,105
2017-06-16T09:32:33.790Z,115
2017-06-16T09:33:34.087Z,135
2017-06-16T09:34:34.395Z,140
2017-06-16T09:35:34.092Z,135
2017-06-16T09:36:34.092Z,125
2017-06-16T09:37:34.094Z,100
2017-06-16T09:38:34.095Z,115
2017-06-16T09:39:34.403Z,120
2017-06-16T09:40:34.399Z,130
2017-06-16T09:41:34.402Z,135
2017-06-16T09:42:34.098Z,115
2017-06-16T09:43:33.790Z,100
2017-06-16T09:44:33.790Z,90
2017-06-16T09:45:34.402Z,95
2017-06-16T09:46:34.107Z,85
2017-06-16T09:47:34.409Z,90
2017-06-16T09:48:34.408Z,85
2017-06-16T09:49:34.404Z,90
2017-06-16T09:50:33.798Z,95
2017-06-16T09:51:34.410Z,90
2017-06-16T09:52:34.410Z,80
2017-06-16T09:53:34.112Z,80
2017-06-16T09:54:34.416Z,80
2017-06-16T09:55:34.104Z,75
2017-06-16T09:56:34.414Z,75
2017-06-16T09:57:33.797Z,85
2017-06-16T09:58:34.114Z,100
2017-06-16T09:59:34.115Z,100
2017-06-16T10:00:34.414Z,95
2017-06-16T10:01:34.420Z,95
2017-06-16T10:02:34.420Z,110
2017-06-16T10:03:34.420Z,115
2017-06-16T10:04:34.126Z,100
2017-06-16T10:05:34.419Z,80
2017-06-16T10:06:34.464Z,80
2017-06-16T10:07:34.420Z,85
2017-06-16T10:08:34.117Z,90
2017-06-16T10:09:33.810Z,90
2017-06-16T10:10:33.810Z,100
2017-06-16T10:11:34.117Z,115
2017-06-16T10:12:33.807Z,105
2017-06-16T10:13:34.118Z,90
2017-06-16T10:14:34.463Z,85
2017-06-16T10:15:34.423Z,85
2017-06-16T10:16:34.427Z,95
2017-06-16T10:17:34.126Z,105
2017-06-16T10:18:34.426Z,115
2017-06-16T10:19:34.118Z,120
2017-06-16T10:20:34.427Z,115
2017-06-16T10:21:33.818Z,115
2017-06-16T10:22:34.127Z,120
2017-06-16T10:23:34.130Z,125
2017-06-16T10:24:34.130Z,120
2017-06-16T10:25:34.433Z,105
2017-06-16T10:26:34.130Z,100
2017-06-16T10:27:34.132Z,95
2017-06-16T10:28:34.439Z,100
2017-06-16T10:29:34.134Z,90
2017-06-16T10:30:34.432Z,70
2017-06-16T10:31:34.135Z,75
2017-06-16T10:32:34.132Z,70
2017-06-16T10:33:33.834Z,75
2017-06-16T10:34:34.441Z,75
2017-06-16T10:35:34.438Z,85
2017-06-16T10:36:34.441Z,100
2017-06-16T10:37:33.833Z,105
2017-06-16T10:38:34.443Z,100
2017-06-16T10:39:34.137Z,105
2017-06-16T10:40:34.442Z,105
2017-06-16T10:41:34.139Z,95
2017-06-16T10:42:34.441Z,110
2017-06-16T10:43:34.447Z,110
2017-06-16T10:44:34.450Z,110
2017-06-16T10:45:34.142Z,105
2017-06-16T10:46:34.442Z,95
2017-06-16T10:47:33.837Z,85
2017-06-16T10:48:34.444Z,95
2017-06-16T10:49:34.445Z,100
2017-06-16T10:50:33.836Z,100
2017-06-16T10:51:34.146Z,100
2017-06-16T10:52:34.451Z,100
2017-06-16T10:53:34.450Z,100
2017-06-16T10:54:34.146Z,100
2017-06-16T10:55:34.149Z,105
2017-06-16T10:56:34.146Z,100
2017-06-16T10:57:34.456Z,100
2017-06-16T10:58:34.147Z,100
2017-06-16T10:59:34.150Z,110
2017-06-16T11:00:33.847Z,105
2017-06-16T11:01:34.460Z,100
2017-06-16T11:02:34.151Z,95
2017-06-16T11:03:34.151Z,85
2017-06-16T11:04:34.151Z,85
2017-06-16T11:05:34.456Z,90
2017-06-16T11:06:34.149Z,90
2017-06-16T11:07:34.175Z,105
2017-06-16T11:08:33.848Z,115
2017-06-16T11:09:34.464Z,110
2017-06-16T11:10:33.541Z,105
2017-06-16T11:11:33.855Z,120
2017-06-16T11:12:34.467Z,125
2017-06-16T11:13:33.849Z,125
2017-06-16T11:14:34.164Z,125
2017-06-16T11:15:34.159Z,120
2017-06-16T11:16:34.157Z,105
2017-06-16T11:17:34.490Z,95
2017-06-16T11:18:34.463Z,95
2017-06-16T11:19:34.157Z,90
2017-06-16T11:20:34.174Z,95
2017-06-16T11:21:34.472Z,95
2017-06-16T11:22:34.473Z,90
2017-06-16T11:23:34.476Z,95
2017-06-16T11:24:33.862Z,100
2017-06-16T11:25:34.473Z,100
2017-06-16T11:26:34.169Z,100
2017-06-16T11:27:34.478Z,100
2017-06-16T11:28:34.164Z,110
2017-06-16T11:29:34.170Z,105
2017-06-16T11:30:34.475Z,105
2017-06-16T11:31:34.515Z,105
2017-06-16T11:32:34.487Z,105
2017-06-16T11:33:34.476Z,105
2017-06-16T11:34:34.478Z,105
2017-06-16T11:35:34.476Z,100
2017-06-16T11:36:34.487Z,95
2017-06-16T11:37:34.485Z,95
2017-06-16T11:38:33.867Z,105
2017-06-16T11:39:34.173Z,105
2017-06-16T11:40:34.477Z,110
2017-06-16T11:41:33.559Z,110
2017-06-16T11:42:34.486Z,100
2017-06-16T11:43:34.480Z,75
2017-06-16T11:44:34.481Z,75
2017-06-16T11:45:34.179Z,80
2017-06-16T11:46:34.174Z,85
2017-06-16T11:47:34.181Z,70
2017-06-16T11:48:33.566Z,65
2017-06-16T11:49:34.185Z,60
2017-06-16T11:50:34.184Z,60
2017-06-16T11:51:34.488Z,65
2017-06-16T11:52:34.490Z,75
2017-06-16T11:53:34.489Z,85
2017-06-16T11:54:34.182Z,85
2017-06-16T11:55:33.877Z,85
2017-06-16T11:56:34.184Z,90
2017-06-16T11:57:34.496Z,80
2017-06-16T11:58:34.189Z,85
2017-06-16T11:59:34.189Z,95
2017-06-16T12:00:34.506Z,95
2017-06-16T12:01:33.882Z,90
2017-06-16T12:02:33.889Z,85
2017-06-16T12:03:33.886Z,85
2017-06-16T12:04:34.493Z,80
2017-06-16T12:05:34.190Z,75
2017-06-16T12:06:34.492Z,75
2017-06-16T12:07:34.194Z,75
2017-06-16T12:08:33.885Z,75
2017-06-16T12:09:34.497Z,70
2017-06-16T12:10:34.499Z,65
2017-06-16T12:11:34.188Z,70
2017-06-16T12:12:33.886Z,80
2017-06-16T12:13:34.190Z,90
2017-06-16T12:14:34.205Z,90
2017-06-16T12:15:34.508Z,80
2017-06-16T12:16:34.196Z,70
2017-06-16T12:17:34.198Z,60
2017-06-16T12:18:34.508Z,55
2017-06-16T12:19:34.498Z,50
2017-06-16T12:20:33.938Z,50
2017-06-16T12:21:34.210Z,50
2017-06-16T12:22:34.411Z,50
2017-06-16T12:23:34.503Z,50
2017-06-16T12:24:34.417Z,50
2017-06-16T12:25:34.205Z,50
2017-06-16T12:26:33.912Z,50
2017-06-16T12:27:34.205Z,60
2017-06-16T12:28:34.504Z,70
2017-06-16T12:29:34.201Z,80
2017-06-16T12:30:34.202Z,90
2017-06-16T12:31:34.509Z,85
2017-06-16T12:32:34.510Z,75
2017-06-16T12:33:34.203Z,65
2017-06-16T12:34:33.897Z,55
2017-06-16T12:35:34.202Z,50
2017-06-16T12:36:34.514Z,50
2017-06-16T12:37:34.205Z,45
2017-06-16T12:38:34.507Z,45
2017-06-16T12:39:34.510Z,45
2017-06-16T12:40:34.538Z,45
2017-06-16T12:41:34.508Z,45
2017-06-16T12:42:34.206Z,45
2017-06-16T12:43:34.205Z,45
2017-06-16T12:44:34.514Z,45
2017-06-16T12:45:34.209Z,45
2017-06-16T12:46:34.518Z,45
2017-06-16T12:47:33.590Z,50
2017-06-16T12:48:34.518Z,50
2017-06-16T12:49:34.516Z,50
2017-06-16T12:50:34.514Z,50
2017-06-16T12:51:34.518Z,50
2017-06-16T12:52:34.523Z,50
2017-06-16T12:53:34.521Z,55
2017-06-16T12:54:34.516Z,55
2017-06-16T12:55:34.207Z,55
2017-06-16T12:56:34.519Z,55
2017-06-16T12:57:34.528Z,50
2017-06-16T12:58:34.513Z,50
2017-06-16T12:59:34.213Z,55
2017-06-16T13:00:33.903Z,50
2017-06-16T13:01:34.519Z,50
2017-06-16T13:02:34.516Z,45
2017-06-16T13:03:33.902Z,45
2017-06-16T13:04:34.209Z,45
2017-06-16T13:05:34.207Z,50
2017-06-16T13:06:34.516Z,50
2017-06-16T13:07:33.907Z,50
2017-06-16T13:08:34.208Z,50
2017-06-16T13:09:33.904Z,50
2017-06-16T13:10:33.903Z,50
2017-06-16T13:11:34.517Z,55
2017-06-16T13:12:34.211Z,55
2017-06-16T13:13:33.909Z,50
2017-06-16T13:14:33.908Z,50
2017-06-16T13:15:33.904Z,45
2017-06-16T13:16:34.216Z,45
2017-06-16T13:17:34.215Z,50
2017-06-16T13:18:34.210Z,50
2017-06-16T13:19:34.221Z,50
2017-06-16T13:20:34.522Z,50
2017-06-16T13:21:33.922Z,50
2017-06-16T13:22:34.520Z,50
2017-06-16T13:23:34.209Z,50
2017-06-16T13:24:34.213Z,50
2017-06-16T13:25:34.516Z,50
2017-06-16T13:26:33.907Z,50
2017-06-16T13:27:33.907Z,50
2017-06-16T13:28:34.531Z,50
2017-06-16T13:29:34.522Z,50
2017-06-16T13:30:34.523Z,50
2017-06-16T13:31:34.223Z,55
2017-06-16T13:32:34.214Z,55
2017-06-16T13:33:33.908Z,55
2017-06-16T13:34:33.904Z,55
2017-06-16T13:35:34.525Z,55
2017-06-16T13:36:34.214Z,50
2017-06-16T13:37:34.220Z,50
2017-06-16T13:38:34.215Z,50
2017-06-16T13:39:34.213Z,50
2017-06-16T13:40:34.526Z,50
2017-06-16T13:41:34.518Z,50
2017-06-16T13:42:33.907Z,55
2017-06-16T13:43:34.521Z,55
2017-06-16T13:44:34.523Z,60
2017-06-16T13:45:34.213Z,60
2017-06-16T13:46:34.525Z,60
2017-06-16T13:47:34.526Z,60
2017-06-16T13:48:34.534Z,60
2017-06-16T13:49:33.910Z,55
2017-06-16T13:50:34.521Z,50
2017-06-16T13:51:34.221Z,50
2017-06-16T13:52:34.522Z,50
2017-06-16T13:53:34.534Z,50
2017-06-16T13:54:34.213Z,50
2017-06-16T13:55:34.522Z,50
2017-06-16T13:56:34.527Z,50
2017-06-16T13:57:34.219Z,50
2017-06-16T13:58:34.527Z,50
2017-06-16T13:59:34.525Z,50
2017-06-16T14:00:33.912Z,50
2017-06-16T14:01:34.226Z,50
2017-06-16T14:02:34.530Z,55
2017-06-16T14:03:34.528Z,55
2017-06-16T14:04:34.222Z,55
2017-06-16T14:05:34.523Z,50
2017-06-16T14:06:34.224Z,50
2017-06-16T14:07:34.219Z,50
2017-06-16T14:08:34.528Z,55
2017-06-16T14:09:34.532Z,50
2017-06-16T14:10:34.530Z,50
2017-06-16T14:11:33.921Z,50
2017-06-16T14:12:34.223Z,45
2017-06-16T14:13:34.526Z,45
2017-06-16T14:14:34.533Z,45
2017-06-16T14:15:34.534Z,45